アディスアベバ の空港の天気 - METARとTAF

ボレ国際空港(アディスアベバ) ( HAAB / ADD ) - エチオピア アディスアベバ
飛行場実況気象(Metar)
観測時間10/20 06:00 EAT (10/20 03:00 UTC)
風向・風速南東 2m/s
視程10km以上
天気現象
全天の8割程度の雲 雲底高度 760m
全天の4割程度の雲 雲底高度 1710m
気温14℃
湿度82%
気圧1027hPa
METARHAAB 200300Z 13004KT 9999 BKN025 SCT056 14/11 Q1027
過去の天気等 Google飛行場航空写真 Wunderground天気予報

過去48時間のMETAR

飛行場予報(TAF)
発表時間: 10/20 00:30 EAT (10/19 21:30 UTC)
予報対象時間: 20日3時 EAT ~ 21日9時 EAT
風向・風速東 4m/s
視程10km以上
全天の4割程度の雲 雲底高度 910m
全天の4割程度の雲 雲底高度 2440m
TAF HAAB 192130Z 2000/2106 09008KT 9999 SCT030 SCT080